createdAt,value
2023-03-05T00:00:54.589Z,3.82
2023-03-05T00:05:57.703Z,3.80
2023-03-05T00:11:01.460Z,3.78
2023-03-05T00:16:08.905Z,3.79
2023-03-05T00:21:21.218Z,3.79
2023-03-05T00:26:25.229Z,3.79
2023-03-05T00:31:32.085Z,3.86
2023-03-05T00:36:34.932Z,3.81
2023-03-05T00:41:37.224Z,3.77
2023-03-05T00:46:39.177Z,3.71
2023-03-05T00:51:41.318Z,3.76
2023-03-05T00:56:43.023Z,3.74
2023-03-05T01:01:44.725Z,3.76
2023-03-05T01:06:46.746Z,3.81
2023-03-05T01:11:48.752Z,3.76
2023-03-05T01:16:50.340Z,3.77
2023-03-05T01:21:52.145Z,3.70
2023-03-05T01:26:53.739Z,3.70
2023-03-05T01:31:55.406Z,3.81
2023-03-05T01:36:56.994Z,3.76
2023-03-05T01:41:58.586Z,3.79
2023-03-05T01:47:00.317Z,3.80
2023-03-05T01:52:11.816Z,3.75
2023-03-05T01:57:46.970Z,3.82
2023-03-05T02:02:50.477Z,3.86
2023-03-05T02:07:54.491Z,3.84
2023-03-05T02:13:00.505Z,3.84
2023-03-05T02:18:02.488Z,3.83
2023-03-05T02:23:04.117Z,3.87
2023-03-05T02:28:37.511Z,3.88
2023-03-05T02:33:39.489Z,3.85
2023-03-05T02:38:42.628Z,3.81
2023-03-05T02:43:44.693Z,3.80
2023-03-05T02:48:46.951Z,3.81
2023-03-05T02:53:49.370Z,3.83
2023-03-05T02:58:51.994Z,3.80
2023-03-05T03:03:54.688Z,3.84
2023-03-05T03:08:56.321Z,3.83
2023-03-05T03:13:59.872Z,3.83
2023-03-05T03:19:01.452Z,3.79
2023-03-05T03:24:03.251Z,3.87
2023-03-05T03:29:04.892Z,3.82
2023-03-05T03:34:06.610Z,3.83
2023-03-05T03:39:09.971Z,3.80
2023-03-05T03:44:13.116Z,3.86
2023-03-05T03:49:24.220Z,3.91
2023-03-05T03:54:26.176Z,3.90
2023-03-05T03:59:27.803Z,3.91
2023-03-05T04:04:30.356Z,3.88
2023-03-05T04:09:32.007Z,3.91
2023-03-05T04:14:34.033Z,3.92
2023-03-05T04:19:35.605Z,3.97
2023-03-05T04:24:38.188Z,3.88
2023-03-05T04:29:39.868Z,3.81
2023-03-05T04:34:41.518Z,3.87
2023-03-05T04:39:43.738Z,3.86
2023-03-05T04:44:46.185Z,3.87
2023-03-05T04:49:47.822Z,3.87
2023-03-05T04:54:49.554Z,3.89
2023-03-05T04:59:51.188Z,3.87
2023-03-05T05:04:53.518Z,3.97
2023-03-05T05:09:55.247Z,3.86
2023-03-05T05:14:58.024Z,3.79
2023-03-05T05:20:07.729Z,3.85
2023-03-05T05:25:10.496Z,3.82
2023-03-05T05:30:12.691Z,3.86
2023-03-05T05:35:14.314Z,3.80
2023-03-05T05:40:15.933Z,3.82
2023-03-05T05:45:17.922Z,3.85
2023-03-05T05:50:20.714Z,3.91
2023-03-05T05:55:22.348Z,3.92
2023-03-05T06:00:24.113Z,3.94
2023-03-05T06:05:25.915Z,3.97
2023-03-05T06:10:27.544Z,3.97
2023-03-05T06:15:29.228Z,4.00
2023-03-05T06:20:30.844Z,3.95
2023-03-05T06:25:32.477Z,4.01
2023-03-05T06:30:34.150Z,4.04
2023-03-05T06:35:40.080Z,3.93
2023-03-05T06:40:41.793Z,4.05
2023-03-05T06:45:43.570Z,4.02
2023-03-05T06:50:45.244Z,4.08
2023-03-05T06:55:46.864Z,4.19
2023-03-05T07:00:48.605Z,4.23
2023-03-05T07:05:50.197Z,4.32
2023-03-05T07:10:51.997Z,4.25
2023-03-05T07:15:54.226Z,4.28
2023-03-05T07:20:55.854Z,4.40
2023-03-05T07:25:57.624Z,4.46
2023-03-05T07:31:01.657Z,4.55
2023-03-05T07:36:05.150Z,4.68
2023-03-05T07:41:10.929Z,4.78
2023-03-05T07:46:15.461Z,4.89
2023-03-05T07:51:19.936Z,5.06
2023-03-05T07:56:31.904Z,5.15
2023-03-05T08:01:34.490Z,5.20
2023-03-05T08:11:41.207Z,5.40
2023-03-05T08:16:42.829Z,5.34
2023-03-05T08:21:45.302Z,5.31
2023-03-05T08:26:47.141Z,5.29
2023-03-05T08:31:49.748Z,5.51
2023-03-05T08:36:51.653Z,5.58
2023-03-05T08:41:53.309Z,5.61
2023-03-05T08:46:55.119Z,5.60
2023-03-05T08:51:56.877Z,5.59
2023-03-05T08:56:58.704Z,5.65
2023-03-05T09:02:01.810Z,5.81
2023-03-05T09:07:03.628Z,5.77
2023-03-05T09:12:05.524Z,6.07
2023-03-05T09:17:07.696Z,6.17
2023-03-05T09:22:09.375Z,6.03
2023-03-05T09:27:10.991Z,6.12
2023-03-05T09:32:12.648Z,6.22
2023-03-05T09:37:14.376Z,6.23
2023-03-05T09:42:29.495Z,6.51
2023-03-05T09:47:52.192Z,6.47
2023-03-05T09:52:57.540Z,6.76
2023-03-05T09:58:06.766Z,6.86
2023-03-05T10:03:30.254Z,6.74
2023-03-05T10:08:52.245Z,6.85
2023-03-05T10:13:54.200Z,7.40
2023-03-05T10:19:34.357Z,7.47
2023-03-05T10:24:49.730Z,7.36
2023-03-05T10:30:21.154Z,7.35
2023-03-05T10:35:59.393Z,7.58
2023-03-05T10:41:12.588Z,7.80
2023-03-05T10:46:20.886Z,7.71
2023-03-05T10:51:39.566Z,7.66
2023-03-05T10:56:41.178Z,7.64
2023-03-05T11:02:02.539Z,7.90
2023-03-05T11:07:16.144Z,8.31
2023-03-05T11:12:22.029Z,8.16
2023-03-05T11:17:31.523Z,8.42
2023-03-05T11:22:35.900Z,8.57
2023-03-05T11:27:44.508Z,8.73
2023-03-05T11:32:47.865Z,8.43
2023-03-05T11:38:00.979Z,8.20
2023-03-05T11:43:05.007Z,8.06
2023-03-05T11:48:15.483Z,7.86
2023-03-05T11:53:35.424Z,7.67
2023-03-05T11:59:04.586Z,7.33
2023-03-05T12:04:08.553Z,7.29
2023-03-05T12:09:37.859Z,7.44
2023-03-05T12:14:51.661Z,7.47
2023-03-05T12:19:53.269Z,7.58
2023-03-05T12:25:29.638Z,7.13
2023-03-05T12:30:33.999Z,6.86
2023-03-05T12:35:38.593Z,6.74
2023-03-05T12:40:40.259Z,6.22
2023-03-05T12:45:42.497Z,6.34
2023-03-05T12:50:45.033Z,6.06
2023-03-05T12:56:25.662Z,6.11
2023-03-05T13:01:41.183Z,6.08
2023-03-05T13:06:42.997Z,6.19
2023-03-05T13:11:51.299Z,6.21
2023-03-05T13:16:53.096Z,6.09
2023-03-05T13:22:04.834Z,5.83
2023-03-05T13:27:30.016Z,5.78
2023-03-05T13:32:33.100Z,5.84
2023-03-05T13:37:37.539Z,5.76
2023-03-05T13:42:39.161Z,5.72
2023-03-05T13:47:53.594Z,5.76
2023-03-05T13:52:58.369Z,5.80
2023-03-05T13:58:00.934Z,5.80
2023-03-05T14:03:23.753Z,5.73
2023-03-05T14:08:26.753Z,5.61
2023-03-05T14:13:29.457Z,5.62
2023-03-05T14:18:31.060Z,5.58
2023-03-05T14:23:32.695Z,5.62
2023-03-05T14:28:34.479Z,5.66
2023-03-05T14:33:36.645Z,5.78
2023-03-05T14:38:43.220Z,5.63
2023-03-05T14:43:44.848Z,5.58
2023-03-05T14:48:46.985Z,5.62
2023-03-05T14:53:51.080Z,5.73
2023-03-05T14:58:53.921Z,5.68
2023-03-05T15:03:55.593Z,5.68
2023-03-05T15:08:57.295Z,5.50
2023-03-05T15:13:58.920Z,5.50
2023-03-05T15:19:00.900Z,5.53
2023-03-05T15:24:02.602Z,5.73
2023-03-05T15:29:04.442Z,5.72
2023-03-05T15:34:06.966Z,5.69
2023-03-05T15:39:08.560Z,5.50
2023-03-05T15:44:10.245Z,5.64
2023-03-05T15:49:12.046Z,5.65
2023-03-05T15:54:13.693Z,5.63
2023-03-05T15:59:15.415Z,5.59
2023-03-05T16:04:18.028Z,5.65
2023-03-05T16:09:21.755Z,5.56
2023-03-05T16:14:26.192Z,5.48
2023-03-05T16:19:28.091Z,5.53
2023-03-05T16:24:29.774Z,5.58
2023-03-05T16:29:32.493Z,5.48
2023-03-05T16:34:34.862Z,5.49
2023-03-05T16:39:36.507Z,5.42
2023-03-05T16:44:38.088Z,5.48
2023-03-05T16:49:40.419Z,5.32
2023-03-05T16:54:42.240Z,5.39
2023-03-05T16:59:44.921Z,5.32
2023-03-05T17:04:46.808Z,5.17
2023-03-05T17:09:50.349Z,4.98
2023-03-05T17:14:52.190Z,4.88
2023-03-05T17:19:53.865Z,5.01
2023-03-05T17:24:55.481Z,4.91
2023-03-05T17:29:57.135Z,4.98
2023-03-05T17:34:58.727Z,5.06
2023-03-05T17:40:00.621Z,5.05
2023-03-05T17:45:04.403Z,4.99
2023-03-05T17:50:07.533Z,5.02
2023-03-05T17:55:11.043Z,5.04
2023-03-05T18:00:28.245Z,4.83
2023-03-05T18:05:30.375Z,4.86
2023-03-05T18:10:33.412Z,4.87
2023-03-05T18:15:35.996Z,4.78
2023-03-05T18:20:37.671Z,4.78
2023-03-05T18:25:39.541Z,4.72
2023-03-05T18:30:42.349Z,4.75
2023-03-05T18:35:44.017Z,4.78
2023-03-05T18:40:47.093Z,4.72
2023-03-05T18:45:53.681Z,4.67
2023-03-05T18:50:55.334Z,4.64
2023-03-05T18:55:56.916Z,4.60
2023-03-05T19:00:58.684Z,4.64
2023-03-05T19:06:00.396Z,4.64
2023-03-05T19:11:02.655Z,4.61
2023-03-05T19:16:11.729Z,4.66
2023-03-05T19:21:13.376Z,4.67
2023-03-05T19:26:15.247Z,4.53
2023-03-05T19:31:16.892Z,4.65
2023-03-05T19:36:18.544Z,4.59
2023-03-05T19:41:21.777Z,4.58
2023-03-05T19:46:23.556Z,4.65
2023-03-05T19:51:26.364Z,4.69
2023-03-05T19:56:28.023Z,4.68
2023-03-05T20:01:29.688Z,4.67
2023-03-05T20:06:33.606Z,4.60
2023-03-05T20:11:35.763Z,4.57
2023-03-05T20:16:37.878Z,4.57
2023-03-05T20:21:41.068Z,4.52
2023-03-05T20:26:44.516Z,4.45
2023-03-05T20:31:47.180Z,4.40
2023-03-05T20:36:49.289Z,4.37
2023-03-05T20:41:51.226Z,4.38
2023-03-05T20:47:02.598Z,4.34
2023-03-05T20:52:04.593Z,4.28
2023-03-05T20:57:06.232Z,4.36
2023-03-05T21:02:09.762Z,4.43
2023-03-05T21:07:11.479Z,4.43
2023-03-05T21:12:13.236Z,4.49
2023-03-05T21:17:15.136Z,4.48
2023-03-05T21:22:16.753Z,4.50
2023-03-05T21:27:18.458Z,4.52
2023-03-05T21:32:20.118Z,4.51
2023-03-05T21:37:21.715Z,4.49
2023-03-05T21:42:23.367Z,4.48
2023-03-05T21:47:24.988Z,4.50
2023-03-05T21:52:26.789Z,4.44
2023-03-05T21:57:29.203Z,4.42
2023-03-05T22:02:30.809Z,4.38
2023-03-05T22:07:33.194Z,4.33
2023-03-05T22:12:54.085Z,4.31
2023-03-05T22:17:55.780Z,4.27
2023-03-05T22:22:57.365Z,4.26
2023-03-05T22:27:59.232Z,4.24
2023-03-05T22:33:01.656Z,4.22
2023-03-05T22:38:03.265Z,4.21
2023-03-05T22:43:04.953Z,4.20
2023-03-05T22:48:07.287Z,4.18
2023-03-05T22:53:08.941Z,4.13
2023-03-05T22:58:10.565Z,4.09
2023-03-05T23:03:12.231Z,4.08
2023-03-05T23:08:14.306Z,4.06
2023-03-05T23:13:15.982Z,4.07
2023-03-05T23:18:17.583Z,4.03
2023-03-05T23:23:20.037Z,4.03
2023-03-05T23:28:21.773Z,4.00
2023-03-05T23:33:24.189Z,4.00
2023-03-05T23:38:27.823Z,4.02
2023-03-05T23:43:30.180Z,3.99
2023-03-05T23:48:31.978Z,3.93
2023-03-05T23:53:33.644Z,3.95
2023-03-05T23:58:36.275Z,3.92
